sensor_id;sensor_type;location;lat;lon;timestamp;P1;durP1;ratioP1;P2;durP2;ratioP2
38023;SDS011;23834;48.080;11.682;2023-03-31T00:02:00;2.77;;;2.57;;
38023;SDS011;23834;48.080;11.682;2023-03-31T00:04:26;2.53;;;2.33;;
38023;SDS011;23834;48.080;11.682;2023-03-31T00:06:51;2.60;;;2.30;;
38023;SDS011;23834;48.080;11.682;2023-03-31T00:09:18;2.93;;;2.63;;
38023;SDS011;23834;48.080;11.682;2023-03-31T00:11:46;2.80;;;2.60;;
38023;SDS011;23834;48.080;11.682;2023-03-31T00:14:11;2.73;;;2.37;;
38023;SDS011;23834;48.080;11.682;2023-03-31T00:16:36;3.87;;;2.73;;
38023;SDS011;23834;48.080;11.682;2023-03-31T00:19:02;3.03;;;2.60;;
38023;SDS011;23834;48.080;11.682;2023-03-31T00:21:28;3.40;;;2.87;;
38023;SDS011;23834;48.080;11.682;2023-03-31T00:24:04;3.00;;;2.70;;
38023;SDS011;23834;48.080;11.682;2023-03-31T00:26:30;2.97;;;2.70;;
38023;SDS011;23834;48.080;11.682;2023-03-31T00:28:55;2.60;;;2.43;;
38023;SDS011;23834;48.080;11.682;2023-03-31T00:31:21;3.03;;;2.30;;
38023;SDS011;23834;48.080;11.682;2023-03-31T00:33:46;2.50;;;2.30;;
38023;SDS011;23834;48.080;11.682;2023-03-31T00:36:12;2.60;;;2.37;;
38023;SDS011;23834;48.080;11.682;2023-03-31T00:38:41;2.87;;;2.67;;
38023;SDS011;23834;48.080;11.682;2023-03-31T00:41:10;2.53;;;2.33;;
38023;SDS011;23834;48.080;11.682;2023-03-31T00:43:36;2.67;;;2.47;;
38023;SDS011;23834;48.080;11.682;2023-03-31T00:48:41;2.50;;;2.30;;
38023;SDS011;23834;48.080;11.682;2023-03-31T00:51:09;2.87;;;2.67;;
38023;SDS011;23834;48.080;11.682;2023-03-31T00:53:35;3.10;;;2.90;;
38023;SDS011;23834;48.080;11.682;2023-03-31T00:56:01;2.50;;;2.30;;
38023;SDS011;23834;48.080;11.682;2023-03-31T00:58:28;2.60;;;2.40;;
38023;SDS011;23834;48.080;11.682;2023-03-31T01:00:57;3.10;;;2.90;;
38023;SDS011;23834;48.080;11.682;2023-03-31T01:03:22;2.90;;;2.70;;
38023;SDS011;23834;48.080;11.682;2023-03-31T01:05:50;3.50;;;2.63;;
38023;SDS011;23834;48.080;11.682;2023-03-31T01:08:17;2.87;;;2.67;;
38023;SDS011;23834;48.080;11.682;2023-03-31T01:10:44;2.73;;;2.53;;
38023;SDS011;23834;48.080;11.682;2023-03-31T01:13:11;3.03;;;2.73;;
38023;SDS011;23834;48.080;11.682;2023-03-31T01:15:37;3.17;;;2.60;;
38023;SDS011;23834;48.080;11.682;2023-03-31T01:18:03;3.20;;;2.90;;
38023;SDS011;23834;48.080;11.682;2023-03-31T01:42:57;3.53;;;3.23;;
38023;SDS011;23834;48.080;11.682;2023-03-31T01:45:30;3.00;;;2.77;;
38023;SDS011;23834;48.080;11.682;2023-03-31T01:48:01;3.27;;;3.07;;
38023;SDS011;23834;48.080;11.682;2023-03-31T01:53:20;3.20;;;3.00;;
38023;SDS011;23834;48.080;11.682;2023-03-31T01:56:09;3.13;;;2.93;;
38023;SDS011;23834;48.080;11.682;2023-03-31T01:58:39;3.00;;;2.80;;
38023;SDS011;23834;48.080;11.682;2023-03-31T02:01:08;3.07;;;2.80;;
38023;SDS011;23834;48.080;11.682;2023-03-31T02:03:39;3.73;;;2.80;;
38023;SDS011;23834;48.080;11.682;2023-03-31T02:06:11;3.60;;;3.30;;
38023;SDS011;23834;48.080;11.682;2023-03-31T02:08:38;3.50;;;3.20;;
38023;SDS011;23834;48.080;11.682;2023-03-31T02:11:04;3.47;;;3.17;;
38023;SDS011;23834;48.080;11.682;2023-03-31T02:13:29;3.87;;;3.07;;
38023;SDS011;23834;48.080;11.682;2023-03-31T02:15:59;3.13;;;2.90;;
38023;SDS011;23834;48.080;11.682;2023-03-31T02:18:26;3.20;;;2.97;;
38023;SDS011;23834;48.080;11.682;2023-03-31T02:20:54;3.27;;;3.00;;
38023;SDS011;23834;48.080;11.682;2023-03-31T02:23:23;3.10;;;2.80;;
38023;SDS011;23834;48.080;11.682;2023-03-31T02:25:51;3.17;;;2.87;;
38023;SDS011;23834;48.080;11.682;2023-03-31T02:28:18;3.43;;;3.17;;
38023;SDS011;23834;48.080;11.682;2023-03-31T02:30:47;3.70;;;3.40;;
38023;SDS011;23834;48.080;11.682;2023-03-31T02:33:13;3.37;;;3.10;;
38023;SDS011;23834;48.080;11.682;2023-03-31T02:35:40;3.10;;;2.90;;
38023;SDS011;23834;48.080;11.682;2023-03-31T02:38:05;3.60;;;3.30;;
38023;SDS011;23834;48.080;11.682;2023-03-31T02:40:32;3.13;;;2.93;;
38023;SDS011;23834;48.080;11.682;2023-03-31T02:42:57;3.27;;;3.07;;
38023;SDS011;23834;48.080;11.682;2023-03-31T02:48:28;3.63;;;3.33;;
38023;SDS011;23834;48.080;11.682;2023-03-31T03:01:36;3.20;;;3.00;;
38023;SDS011;23834;48.080;11.682;2023-03-31T03:04:10;3.60;;;3.40;;
38023;SDS011;23834;48.080;11.682;2023-03-31T03:06:53;3.57;;;3.27;;
38023;SDS011;23834;48.080;11.682;2023-03-31T03:12:24;3.80;;;3.50;;
38023;SDS011;23834;48.080;11.682;2023-03-31T03:14:59;3.40;;;3.10;;
38023;SDS011;23834;48.080;11.682;2023-03-31T03:17:42;4.17;;;2.93;;
38023;SDS011;23834;48.080;11.682;2023-03-31T03:20:09;3.33;;;3.10;;
38023;SDS011;23834;48.080;11.682;2023-03-31T03:22:35;4.03;;;3.73;;
38023;SDS011;23834;48.080;11.682;2023-03-31T03:25:01;2.90;;;2.70;;
38023;SDS011;23834;48.080;11.682;2023-03-31T03:27:26;3.23;;;2.93;;
38023;SDS011;23834;48.080;11.682;2023-03-31T03:29:52;3.00;;;2.80;;
38023;SDS011;23834;48.080;11.682;2023-03-31T03:32:17;3.30;;;3.10;;
38023;SDS011;23834;48.080;11.682;2023-03-31T03:34:43;4.03;;;3.40;;
38023;SDS011;23834;48.080;11.682;2023-03-31T03:37:08;3.50;;;3.20;;
38023;SDS011;23834;48.080;11.682;2023-03-31T03:39:33;3.37;;;3.07;;
38023;SDS011;23834;48.080;11.682;2023-03-31T03:41:58;3.83;;;3.53;;
38023;SDS011;23834;48.080;11.682;2023-03-31T03:44:24;3.23;;;3.03;;
38023;SDS011;23834;48.080;11.682;2023-03-31T03:46:49;3.40;;;3.20;;
38023;SDS011;23834;48.080;11.682;2023-03-31T03:49:14;3.77;;;3.47;;
38023;SDS011;23834;48.080;11.682;2023-03-31T03:51:39;3.90;;;3.60;;
38023;SDS011;23834;48.080;11.682;2023-03-31T03:54:05;3.70;;;3.40;;
38023;SDS011;23834;48.080;11.682;2023-03-31T03:56:30;3.17;;;2.87;;
38023;SDS011;23834;48.080;11.682;2023-03-31T03:58:55;3.80;;;3.60;;
38023;SDS011;23834;48.080;11.682;2023-03-31T04:01:21;3.87;;;3.50;;
38023;SDS011;23834;48.080;11.682;2023-03-31T04:03:46;3.47;;;3.17;;
38023;SDS011;23834;48.080;11.682;2023-03-31T04:06:11;3.20;;;2.90;;
38023;SDS011;23834;48.080;11.682;2023-03-31T04:08:37;3.50;;;3.20;;
38023;SDS011;23834;48.080;11.682;2023-03-31T04:11:02;3.37;;;3.07;;
38023;SDS011;23834;48.080;11.682;2023-03-31T04:13:27;3.60;;;3.30;;
38023;SDS011;23834;48.080;11.682;2023-03-31T04:15:53;3.20;;;2.90;;
38023;SDS011;23834;48.080;11.682;2023-03-31T04:18:18;3.50;;;3.20;;
38023;SDS011;23834;48.080;11.682;2023-03-31T04:20:49;3.70;;;3.40;;
38023;SDS011;23834;48.080;11.682;2023-03-31T04:23:19;3.43;;;3.23;;
38023;SDS011;23834;48.080;11.682;2023-03-31T04:25:44;3.37;;;3.10;;
38023;SDS011;23834;48.080;11.682;2023-03-31T04:28:10;3.60;;;3.30;;
38023;SDS011;23834;48.080;11.682;2023-03-31T04:30:38;3.17;;;2.97;;
38023;SDS011;23834;48.080;11.682;2023-03-31T04:33:04;4.63;;;3.40;;
38023;SDS011;23834;48.080;11.682;2023-03-31T04:35:30;3.53;;;3.23;;
38023;SDS011;23834;48.080;11.682;2023-03-31T04:38:12;3.80;;;3.50;;
38023;SDS011;23834;48.080;11.682;2023-03-31T04:40:37;3.67;;;3.37;;
38023;SDS011;23834;48.080;11.682;2023-03-31T04:43:03;3.80;;;3.50;;
38023;SDS011;23834;48.080;11.682;2023-03-31T04:45:29;3.33;;;3.13;;
38023;SDS011;23834;48.080;11.682;2023-03-31T04:47:54;3.83;;;3.53;;
38023;SDS011;23834;48.080;11.682;2023-03-31T04:50:19;3.90;;;3.60;;
38023;SDS011;23834;48.080;11.682;2023-03-31T04:52:45;3.73;;;3.50;;
38023;SDS011;23834;48.080;11.682;2023-03-31T04:55:10;3.40;;;3.20;;
38023;SDS011;23834;48.080;11.682;2023-03-31T04:57:35;3.80;;;3.50;;
38023;SDS011;23834;48.080;11.682;2023-03-31T05:00:01;3.97;;;3.57;;
38023;SDS011;23834;48.080;11.682;2023-03-31T05:02:26;3.73;;;3.43;;
38023;SDS011;23834;48.080;11.682;2023-03-31T05:04:51;3.70;;;3.30;;
38023;SDS011;23834;48.080;11.682;2023-03-31T05:07:17;3.40;;;3.10;;
38023;SDS011;23834;48.080;11.682;2023-03-31T05:09:43;3.67;;;3.37;;
38023;SDS011;23834;48.080;11.682;2023-03-31T05:12:08;4.07;;;3.70;;
38023;SDS011;23834;48.080;11.682;2023-03-31T05:14:33;4.23;;;3.60;;
38023;SDS011;23834;48.080;11.682;2023-03-31T05:16:58;3.63;;;3.40;;
38023;SDS011;23834;48.080;11.682;2023-03-31T05:19:23;4.20;;;3.90;;
38023;SDS011;23834;48.080;11.682;2023-03-31T05:21:49;3.70;;;3.33;;
38023;SDS011;23834;48.080;11.682;2023-03-31T05:24:14;4.00;;;3.70;;
38023;SDS011;23834;48.080;11.682;2023-03-31T05:26:39;4.10;;;3.30;;
38023;SDS011;23834;48.080;11.682;2023-03-31T05:29:05;3.90;;;3.60;;
38023;SDS011;23834;48.080;11.682;2023-03-31T05:31:31;4.03;;;3.73;;
38023;SDS011;23834;48.080;11.682;2023-03-31T05:33:56;3.20;;;3.00;;
38023;SDS011;23834;48.080;11.682;2023-03-31T05:36:21;3.90;;;3.60;;
38023;SDS011;23834;48.080;11.682;2023-03-31T05:38:47;3.40;;;3.20;;
38023;SDS011;23834;48.080;11.682;2023-03-31T05:41:12;4.10;;;3.70;;
38023;SDS011;23834;48.080;11.682;2023-03-31T05:43:38;3.70;;;3.40;;
38023;SDS011;23834;48.080;11.682;2023-03-31T05:46:03;4.20;;;3.73;;
38023;SDS011;23834;48.080;11.682;2023-03-31T05:48:29;3.83;;;3.53;;
38023;SDS011;23834;48.080;11.682;2023-03-31T05:50:55;3.60;;;3.30;;
38023;SDS011;23834;48.080;11.682;2023-03-31T05:53:20;3.60;;;3.30;;
38023;SDS011;23834;48.080;11.682;2023-03-31T05:55:45;3.43;;;3.13;;
38023;SDS011;23834;48.080;11.682;2023-03-31T05:58:11;3.60;;;3.30;;
38023;SDS011;23834;48.080;11.682;2023-03-31T06:00:36;3.80;;;3.50;;
38023;SDS011;23834;48.080;11.682;2023-03-31T06:03:01;4.23;;;3.83;;
38023;SDS011;23834;48.080;11.682;2023-03-31T06:05:27;4.60;;;4.00;;
38023;SDS011;23834;48.080;11.682;2023-03-31T06:07:54;4.10;;;3.70;;
38023;SDS011;23834;48.080;11.682;2023-03-31T06:10:20;4.30;;;3.90;;
38023;SDS011;23834;48.080;11.682;2023-03-31T06:12:45;3.60;;;3.30;;
38023;SDS011;23834;48.080;11.682;2023-03-31T06:15:10;3.70;;;3.40;;
38023;SDS011;23834;48.080;11.682;2023-03-31T06:17:35;3.23;;;3.00;;
38023;SDS011;23834;48.080;11.682;2023-03-31T06:20:00;3.87;;;3.53;;
38023;SDS011;23834;48.080;11.682;2023-03-31T06:22:26;3.50;;;3.20;;
38023;SDS011;23834;48.080;11.682;2023-03-31T06:24:51;3.70;;;3.40;;
38023;SDS011;23834;48.080;11.682;2023-03-31T06:27:16;3.60;;;3.30;;
38023;SDS011;23834;48.080;11.682;2023-03-31T06:29:41;3.47;;;3.17;;
38023;SDS011;23834;48.080;11.682;2023-03-31T06:32:07;3.73;;;3.43;;
38023;SDS011;23834;48.080;11.682;2023-03-31T06:34:32;4.00;;;3.70;;
38023;SDS011;23834;48.080;11.682;2023-03-31T06:36:57;3.70;;;3.30;;
38023;SDS011;23834;48.080;11.682;2023-03-31T06:39:22;3.67;;;3.37;;
38023;SDS011;23834;48.080;11.682;2023-03-31T06:41:47;3.50;;;3.20;;
38023;SDS011;23834;48.080;11.682;2023-03-31T06:44:13;3.40;;;3.20;;
38023;SDS011;23834;48.080;11.682;2023-03-31T06:46:40;4.03;;;3.50;;
38023;SDS011;23834;48.080;11.682;2023-03-31T06:49:05;4.00;;;3.70;;
38023;SDS011;23834;48.080;11.682;2023-03-31T06:51:31;3.60;;;3.27;;
38023;SDS011;23834;48.080;11.682;2023-03-31T06:53:56;3.67;;;3.37;;
38023;SDS011;23834;48.080;11.682;2023-03-31T06:56:21;4.47;;;3.53;;
38023;SDS011;23834;48.080;11.682;2023-03-31T06:58:46;3.30;;;3.10;;
38023;SDS011;23834;48.080;11.682;2023-03-31T07:01:11;3.90;;;3.17;;
38023;SDS011;23834;48.080;11.682;2023-03-31T07:03:37;3.70;;;3.40;;
38023;SDS011;23834;48.080;11.682;2023-03-31T07:06:02;5.80;;;3.90;;
38023;SDS011;23834;48.080;11.682;2023-03-31T07:08:27;3.40;;;3.20;;
38023;SDS011;23834;48.080;11.682;2023-03-31T07:10:56;4.30;;;3.60;;
38023;SDS011;23834;48.080;11.682;2023-03-31T07:13:21;4.83;;;3.40;;
38023;SDS011;23834;48.080;11.682;2023-03-31T07:15:47;3.63;;;3.33;;
38023;SDS011;23834;48.080;11.682;2023-03-31T07:18:12;3.70;;;3.23;;
38023;SDS011;23834;48.080;11.682;2023-03-31T07:20:39;4.43;;;3.20;;
38023;SDS011;23834;48.080;11.682;2023-03-31T07:23:05;3.53;;;3.20;;
38023;SDS011;23834;48.080;11.682;2023-03-31T07:25:30;3.80;;;3.50;;
38023;SDS011;23834;48.080;11.682;2023-03-31T07:27:56;3.33;;;3.10;;
38023;SDS011;23834;48.080;11.682;2023-03-31T07:30:21;4.57;;;4.17;;
38023;SDS011;23834;48.080;11.682;2023-03-31T07:32:47;3.30;;;3.10;;
38023;SDS011;23834;48.080;11.682;2023-03-31T07:35:13;3.77;;;3.40;;
38023;SDS011;23834;48.080;11.682;2023-03-31T07:37:39;4.23;;;3.33;;
38023;SDS011;23834;48.080;11.682;2023-03-31T07:40:06;3.63;;;3.33;;
38023;SDS011;23834;48.080;11.682;2023-03-31T07:42:32;4.50;;;4.10;;
38023;SDS011;23834;48.080;11.682;2023-03-31T07:44:57;3.87;;;3.57;;
38023;SDS011;23834;48.080;11.682;2023-03-31T07:47:23;3.57;;;3.27;;
38023;SDS011;23834;48.080;11.682;2023-03-31T07:49:48;5.87;;;3.60;;
38023;SDS011;23834;48.080;11.682;2023-03-31T07:52:14;3.87;;;3.57;;
38023;SDS011;23834;48.080;11.682;2023-03-31T07:54:39;3.83;;;3.30;;
38023;SDS011;23834;48.080;11.682;2023-03-31T07:57:04;3.60;;;3.30;;
38023;SDS011;23834;48.080;11.682;2023-03-31T07:59:30;3.77;;;3.37;;
38023;SDS011;23834;48.080;11.682;2023-03-31T08:01:55;3.83;;;3.50;;
38023;SDS011;23834;48.080;11.682;2023-03-31T08:04:20;3.50;;;3.20;;
38023;SDS011;23834;48.080;11.682;2023-03-31T08:06:45;3.20;;;2.90;;
38023;SDS011;23834;48.080;11.682;2023-03-31T08:09:11;3.80;;;3.40;;
38023;SDS011;23834;48.080;11.682;2023-03-31T08:11:37;3.83;;;3.50;;
38023;SDS011;23834;48.080;11.682;2023-03-31T08:14:03;4.10;;;3.40;;
38023;SDS011;23834;48.080;11.682;2023-03-31T08:16:28;3.20;;;2.97;;
38023;SDS011;23834;48.080;11.682;2023-03-31T08:18:53;3.67;;;3.37;;
38023;SDS011;23834;48.080;11.682;2023-03-31T08:21:18;3.57;;;3.27;;
38023;SDS011;23834;48.080;11.682;2023-03-31T08:23:43;3.30;;;3.03;;
38023;SDS011;23834;48.080;11.682;2023-03-31T08:26:13;3.60;;;3.30;;
38023;SDS011;23834;48.080;11.682;2023-03-31T08:28:38;3.80;;;3.10;;
38023;SDS011;23834;48.080;11.682;2023-03-31T08:31:04;4.80;;;3.50;;
38023;SDS011;23834;48.080;11.682;2023-03-31T08:33:30;5.40;;;3.20;;
38023;SDS011;23834;48.080;11.682;2023-03-31T08:35:56;3.80;;;3.50;;
38023;SDS011;23834;48.080;11.682;2023-03-31T08:38:21;3.20;;;2.90;;
38023;SDS011;23834;48.080;11.682;2023-03-31T08:40:46;3.60;;;3.30;;
38023;SDS011;23834;48.080;11.682;2023-03-31T08:43:13;3.70;;;3.30;;
38023;SDS011;23834;48.080;11.682;2023-03-31T08:45:40;3.43;;;3.13;;
38023;SDS011;23834;48.080;11.682;2023-03-31T08:50:35;3.80;;;3.50;;
38023;SDS011;23834;48.080;11.682;2023-03-31T08:53:05;3.90;;;3.53;;
38023;SDS011;23834;48.080;11.682;2023-03-31T08:58:07;5.03;;;4.07;;
38023;SDS011;23834;48.080;11.682;2023-03-31T09:00:38;3.23;;;2.93;;
38023;SDS011;23834;48.080;11.682;2023-03-31T09:03:05;4.80;;;3.60;;
38023;SDS011;23834;48.080;11.682;2023-03-31T09:05:38;3.60;;;3.30;;
38023;SDS011;23834;48.080;11.682;2023-03-31T09:10:50;3.60;;;3.30;;
38023;SDS011;23834;48.080;11.682;2023-03-31T09:13:28;3.57;;;3.27;;
38023;SDS011;23834;48.080;11.682;2023-03-31T09:16:13;5.20;;;3.30;;
38023;SDS011;23834;48.080;11.682;2023-03-31T09:18:38;3.93;;;3.60;;
38023;SDS011;23834;48.080;11.682;2023-03-31T09:23:39;4.63;;;3.50;;
38023;SDS011;23834;48.080;11.682;2023-03-31T09:26:09;3.40;;;3.07;;
38023;SDS011;23834;48.080;11.682;2023-03-31T09:28:37;3.77;;;3.47;;
38023;SDS011;23834;48.080;11.682;2023-03-31T09:31:04;3.60;;;3.30;;
38023;SDS011;23834;48.080;11.682;2023-03-31T09:33:31;3.80;;;3.40;;
38023;SDS011;23834;48.080;11.682;2023-03-31T09:35:57;3.80;;;3.40;;
38023;SDS011;23834;48.080;11.682;2023-03-31T09:38:22;3.73;;;3.20;;
38023;SDS011;23834;48.080;11.682;2023-03-31T09:40:47;3.13;;;2.93;;
38023;SDS011;23834;48.080;11.682;2023-03-31T09:43:26;4.23;;;3.50;;
38023;SDS011;23834;48.080;11.682;2023-03-31T09:45:52;3.13;;;2.80;;
38023;SDS011;23834;48.080;11.682;2023-03-31T09:48:35;3.93;;;3.07;;
38023;SDS011;23834;48.080;11.682;2023-03-31T09:51:13;3.20;;;3.00;;
38023;SDS011;23834;48.080;11.682;2023-03-31T09:53:42;3.30;;;3.10;;
38023;SDS011;23834;48.080;11.682;2023-03-31T09:56:10;3.60;;;3.30;;
38023;SDS011;23834;48.080;11.682;2023-03-31T09:58:42;5.73;;;3.40;;
38023;SDS011;23834;48.080;11.682;2023-03-31T10:01:09;4.20;;;3.00;;
38023;SDS011;23834;48.080;11.682;2023-03-31T10:03:56;3.80;;;3.30;;
38023;SDS011;23834;48.080;11.682;2023-03-31T10:06:20;3.13;;;2.93;;
38023;SDS011;23834;48.080;11.682;2023-03-31T10:08:47;5.73;;;3.80;;
38023;SDS011;23834;48.080;11.682;2023-03-31T10:11:13;3.60;;;3.30;;
38023;SDS011;23834;48.080;11.682;2023-03-31T10:16:04;3.87;;;3.40;;
38023;SDS011;23834;48.080;11.682;2023-03-31T10:18:37;3.20;;;2.90;;
38023;SDS011;23834;48.080;11.682;2023-03-31T10:21:04;2.90;;;2.70;;
38023;SDS011;23834;48.080;11.682;2023-03-31T10:23:30;3.20;;;2.90;;
38023;SDS011;23834;48.080;11.682;2023-03-31T10:25:56;3.40;;;2.90;;
38023;SDS011;23834;48.080;11.682;2023-03-31T10:28:22;3.20;;;2.90;;
38023;SDS011;23834;48.080;11.682;2023-03-31T10:30:48;3.33;;;3.13;;
38023;SDS011;23834;48.080;11.682;2023-03-31T10:33:15;3.30;;;3.10;;
38023;SDS011;23834;48.080;11.682;2023-03-31T10:35:41;2.77;;;2.57;;
38023;SDS011;23834;48.080;11.682;2023-03-31T10:38:11;4.00;;;2.93;;
38023;SDS011;23834;48.080;11.682;2023-03-31T10:40:38;3.13;;;2.83;;
38023;SDS011;23834;48.080;11.682;2023-03-31T10:45:37;3.70;;;3.30;;
38023;SDS011;23834;48.080;11.682;2023-03-31T10:48:05;2.77;;;2.60;;
38023;SDS011;23834;48.080;11.682;2023-03-31T10:50:41;3.93;;;3.60;;
38023;SDS011;23834;48.080;11.682;2023-03-31T10:53:13;3.13;;;2.93;;
38023;SDS011;23834;48.080;11.682;2023-03-31T10:55:54;2.63;;;2.43;;
38023;SDS011;23834;48.080;11.682;2023-03-31T10:58:25;3.53;;;3.23;;
38023;SDS011;23834;48.080;11.682;2023-03-31T11:01:02;2.80;;;2.60;;
38023;SDS011;23834;48.080;11.682;2023-03-31T11:03:33;2.90;;;2.60;;
38023;SDS011;23834;48.080;11.682;2023-03-31T11:06:25;2.90;;;2.60;;
38023;SDS011;23834;48.080;11.682;2023-03-31T11:19:10;2.78;;;2.58;;
38023;SDS011;23834;48.080;11.682;2023-03-31T11:26:51;2.85;;;2.60;;
38023;SDS011;23834;48.080;11.682;2023-03-31T11:29:21;2.93;;;2.73;;
38023;SDS011;23834;48.080;11.682;2023-03-31T11:37:23;2.93;;;2.63;;
38023;SDS011;23834;48.080;11.682;2023-03-31T11:45:39;2.83;;;2.63;;
38023;SDS011;23834;48.080;11.682;2023-03-31T11:48:06;3.10;;;2.77;;
38023;SDS011;23834;48.080;11.682;2023-03-31T11:50:35;3.70;;;3.30;;
38023;SDS011;23834;48.080;11.682;2023-03-31T11:53:05;2.40;;;2.30;;
38023;SDS011;23834;48.080;11.682;2023-03-31T11:55:31;2.50;;;2.40;;
38023;SDS011;23834;48.080;11.682;2023-03-31T11:57:58;2.60;;;2.40;;
38023;SDS011;23834;48.080;11.682;2023-03-31T12:00:26;2.93;;;2.63;;
38023;SDS011;23834;48.080;11.682;2023-03-31T12:05:38;3.70;;;2.50;;
38023;SDS011;23834;48.080;11.682;2023-03-31T12:08:06;2.60;;;2.30;;
38023;SDS011;23834;48.080;11.682;2023-03-31T12:10:35;2.90;;;2.70;;
38023;SDS011;23834;48.080;11.682;2023-03-31T12:15:26;2.27;;;2.07;;
38023;SDS011;23834;48.080;11.682;2023-03-31T12:18:13;2.27;;;2.17;;
38023;SDS011;23834;48.080;11.682;2023-03-31T12:20:40;2.50;;;2.30;;
38023;SDS011;23834;48.080;11.682;2023-03-31T12:23:11;2.53;;;2.33;;
38023;SDS011;23834;48.080;11.682;2023-03-31T12:25:41;3.37;;;2.70;;
38023;SDS011;23834;48.080;11.682;2023-03-31T12:28:08;2.50;;;2.30;;
38023;SDS011;23834;48.080;11.682;2023-03-31T12:30:38;2.27;;;2.10;;
38023;SDS011;23834;48.080;11.682;2023-03-31T12:38:17;2.73;;;2.53;;
38023;SDS011;23834;48.080;11.682;2023-03-31T12:51:48;2.70;;;2.03;;
38023;SDS011;23834;48.080;11.682;2023-03-31T12:59:37;2.57;;;2.30;;
38023;SDS011;23834;48.080;11.682;2023-03-31T13:02:21;2.23;;;2.03;;
38023;SDS011;23834;48.080;11.682;2023-03-31T13:04:46;3.13;;;2.60;;
38023;SDS011;23834;48.080;11.682;2023-03-31T13:09:45;2.73;;;2.40;;
38023;SDS011;23834;48.080;11.682;2023-03-31T13:12:15;2.50;;;2.30;;
38023;SDS011;23834;48.080;11.682;2023-03-31T13:14:41;3.07;;;2.37;;
38023;SDS011;23834;48.080;11.682;2023-03-31T13:17:11;2.20;;;2.10;;
38023;SDS011;23834;48.080;11.682;2023-03-31T13:19:36;3.53;;;2.20;;
38023;SDS011;23834;48.080;11.682;2023-03-31T13:22:04;2.10;;;2.00;;
38023;SDS011;23834;48.080;11.682;2023-03-31T13:24:30;2.97;;;2.53;;
38023;SDS011;23834;48.080;11.682;2023-03-31T13:26:56;3.67;;;2.47;;
38023;SDS011;23834;48.080;11.682;2023-03-31T13:29:39;1.93;;;1.83;;
38023;SDS011;23834;48.080;11.682;2023-03-31T13:32:06;2.00;;;1.90;;
38023;SDS011;23834;48.080;11.682;2023-03-31T13:42:35;1.77;;;1.67;;
38023;SDS011;23834;48.080;11.682;2023-03-31T13:53:13;1.93;;;1.60;;
38023;SDS011;23834;48.080;11.682;2023-03-31T13:55:59;2.23;;;2.13;;
38023;SDS011;23834;48.080;11.682;2023-03-31T14:08:48;1.90;;;1.80;;
38023;SDS011;23834;48.080;11.682;2023-03-31T14:11:22;2.50;;;1.47;;
38023;SDS011;23834;48.080;11.682;2023-03-31T14:16:43;2.00;;;1.60;;
38023;SDS011;23834;48.080;11.682;2023-03-31T14:22:14;1.77;;;1.67;;
38023;SDS011;23834;48.080;11.682;2023-03-31T14:27:22;1.77;;;1.67;;
38023;SDS011;23834;48.080;11.682;2023-03-31T14:30:14;2.00;;;1.80;;
38023;SDS011;23834;48.080;11.682;2023-03-31T14:32:56;1.60;;;1.50;;
38023;SDS011;23834;48.080;11.682;2023-03-31T14:37:51;1.70;;;1.53;;
38023;SDS011;23834;48.080;11.682;2023-03-31T14:40:16;1.80;;;1.70;;
38023;SDS011;23834;48.080;11.682;2023-03-31T14:42:43;3.27;;;1.67;;
38023;SDS011;23834;48.080;11.682;2023-03-31T14:45:18;1.70;;;1.60;;
38023;SDS011;23834;48.080;11.682;2023-03-31T14:47:53;1.70;;;1.60;;
38023;SDS011;23834;48.080;11.682;2023-03-31T14:50:19;1.77;;;1.50;;
38023;SDS011;23834;48.080;11.682;2023-03-31T14:52:45;1.90;;;1.80;;
38023;SDS011;23834;48.080;11.682;2023-03-31T14:55:15;4.10;;;2.00;;
38023;SDS011;23834;48.080;11.682;2023-03-31T14:57:40;1.80;;;1.70;;
38023;SDS011;23834;48.080;11.682;2023-03-31T15:00:07;1.30;;;1.30;;
38023;SDS011;23834;48.080;11.682;2023-03-31T15:02:34;1.60;;;1.43;;
38023;SDS011;23834;48.080;11.682;2023-03-31T15:05:03;1.90;;;1.80;;
38023;SDS011;23834;48.080;11.682;2023-03-31T15:07:29;1.67;;;1.57;;
38023;SDS011;23834;48.080;11.682;2023-03-31T15:09:55;1.77;;;1.43;;
38023;SDS011;23834;48.080;11.682;2023-03-31T15:12:20;1.53;;;1.43;;
38023;SDS011;23834;48.080;11.682;2023-03-31T15:14:47;1.70;;;1.60;;
38023;SDS011;23834;48.080;11.682;2023-03-31T15:17:29;1.70;;;1.53;;
38023;SDS011;23834;48.080;11.682;2023-03-31T15:19:57;1.77;;;1.50;;
38023;SDS011;23834;48.080;11.682;2023-03-31T15:22:24;1.50;;;1.40;;
38023;SDS011;23834;48.080;11.682;2023-03-31T15:24:50;1.40;;;1.33;;
38023;SDS011;23834;48.080;11.682;2023-03-31T15:27:18;1.70;;;1.43;;
38023;SDS011;23834;48.080;11.682;2023-03-31T15:29:51;1.87;;;1.77;;
38023;SDS011;23834;48.080;11.682;2023-03-31T15:34:49;2.10;;;1.10;;
38023;SDS011;23834;48.080;11.682;2023-03-31T15:37:15;1.93;;;1.30;;
38023;SDS011;23834;48.080;11.682;2023-03-31T15:39:42;1.67;;;1.57;;
38023;SDS011;23834;48.080;11.682;2023-03-31T15:42:09;1.40;;;1.30;;
38023;SDS011;23834;48.080;11.682;2023-03-31T15:47:00;1.10;;;1.10;;
38023;SDS011;23834;48.080;11.682;2023-03-31T15:49:25;1.43;;;1.20;;
38023;SDS011;23834;48.080;11.682;2023-03-31T15:51:51;1.30;;;1.20;;
38023;SDS011;23834;48.080;11.682;2023-03-31T15:54:25;1.17;;;1.00;;
38023;SDS011;23834;48.080;11.682;2023-03-31T15:56:52;1.00;;;1.00;;
38023;SDS011;23834;48.080;11.682;2023-03-31T15:59:24;1.47;;;1.20;;
38023;SDS011;23834;48.080;11.682;2023-03-31T16:01:49;2.10;;;1.27;;
38023;SDS011;23834;48.080;11.682;2023-03-31T16:04:16;2.43;;;1.30;;
38023;SDS011;23834;48.080;11.682;2023-03-31T16:06:48;1.10;;;1.00;;
38023;SDS011;23834;48.080;11.682;2023-03-31T16:09:23;1.40;;;1.30;;
38023;SDS011;23834;48.080;11.682;2023-03-31T16:11:52;1.47;;;0.97;;
38023;SDS011;23834;48.080;11.682;2023-03-31T16:14:19;0.93;;;0.93;;
38023;SDS011;23834;48.080;11.682;2023-03-31T16:16:48;1.20;;;1.10;;
38023;SDS011;23834;48.080;11.682;2023-03-31T16:19:14;1.10;;;1.00;;
38023;SDS011;23834;48.080;11.682;2023-03-31T16:21:43;1.20;;;1.10;;
38023;SDS011;23834;48.080;11.682;2023-03-31T16:24:11;1.57;;;1.00;;
38023;SDS011;23834;48.080;11.682;2023-03-31T16:26:37;1.40;;;1.30;;
38023;SDS011;23834;48.080;11.682;2023-03-31T16:29:02;1.10;;;1.10;;
38023;SDS011;23834;48.080;11.682;2023-03-31T16:31:33;1.23;;;1.07;;
38023;SDS011;23834;48.080;11.682;2023-03-31T16:33:59;1.47;;;1.30;;
38023;SDS011;23834;48.080;11.682;2023-03-31T16:36:25;1.30;;;1.00;;
38023;SDS011;23834;48.080;11.682;2023-03-31T16:38:51;1.77;;;1.10;;
38023;SDS011;23834;48.080;11.682;2023-03-31T16:41:17;1.23;;;1.10;;
38023;SDS011;23834;48.080;11.682;2023-03-31T16:43:43;0.90;;;0.90;;
38023;SDS011;23834;48.080;11.682;2023-03-31T16:46:09;1.10;;;1.00;;
38023;SDS011;23834;48.080;11.682;2023-03-31T16:48:34;1.17;;;1.10;;
38023;SDS011;23834;48.080;11.682;2023-03-31T16:50:59;1.20;;;1.10;;
38023;SDS011;23834;48.080;11.682;2023-03-31T16:53:26;3.87;;;1.40;;
38023;SDS011;23834;48.080;11.682;2023-03-31T16:55:52;1.33;;;1.10;;
38023;SDS011;23834;48.080;11.682;2023-03-31T16:58:17;1.83;;;1.13;;
38023;SDS011;23834;48.080;11.682;2023-03-31T17:00:43;1.37;;;1.27;;
38023;SDS011;23834;48.080;11.682;2023-03-31T17:03:09;1.20;;;1.10;;
38023;SDS011;23834;48.080;11.682;2023-03-31T17:05:39;2.63;;;1.20;;
38023;SDS011;23834;48.080;11.682;2023-03-31T17:08:05;1.07;;;0.97;;
38023;SDS011;23834;48.080;11.682;2023-03-31T17:10:30;1.07;;;1.07;;
38023;SDS011;23834;48.080;11.682;2023-03-31T17:12:55;1.30;;;1.20;;
38023;SDS011;23834;48.080;11.682;2023-03-31T17:15:21;1.37;;;1.27;;